createdAt,value
2023-06-25T00:00:48.184Z,208.35
2023-06-25T00:01:48.264Z,207.87
2023-06-25T00:02:48.183Z,208.79
2023-06-25T00:03:48.159Z,204.94
2023-06-25T00:04:48.146Z,210.04
2023-06-25T00:05:48.155Z,208.17
2023-06-25T00:06:48.195Z,206.89
2023-06-25T00:07:48.167Z,209.50
2023-06-25T00:08:48.153Z,207.53
2023-06-25T00:09:48.134Z,205.38
2023-06-25T00:10:48.142Z,207.66
2023-06-25T00:11:48.158Z,203.94
2023-06-25T00:12:48.119Z,208.64
2023-06-25T00:13:48.122Z,209.29
2023-06-25T00:14:48.182Z,211.12
2023-06-25T00:15:48.174Z,210.50
2023-06-25T00:16:48.121Z,203.64
2023-06-25T00:17:48.170Z,205.50
2023-06-25T00:18:48.146Z,203.63
2023-06-25T00:19:48.156Z,205.17
2023-06-25T00:20:48.157Z,204.34
2023-06-25T00:21:48.141Z,203.95
2023-06-25T00:23:05.281Z,206.12
2023-06-25T00:23:49.118Z,206.29
2023-06-25T00:24:48.110Z,206.73
2023-06-25T00:25:48.095Z,207.27
2023-06-25T00:26:48.140Z,207.62
2023-06-25T00:27:48.079Z,207.51
2023-06-25T00:28:48.079Z,206.50
2023-06-25T00:29:48.108Z,207.71
2023-06-25T00:30:48.091Z,208.16
2023-06-25T00:31:48.092Z,207.00
2023-06-25T00:32:48.110Z,206.75
2023-06-25T00:33:48.051Z,206.44
2023-06-25T00:34:48.043Z,207.73
2023-06-25T00:35:48.056Z,205.42
2023-06-25T00:36:48.036Z,202.84
2023-06-25T00:37:48.048Z,207.12
2023-06-25T00:38:48.013Z,202.48
2023-06-25T00:39:48.026Z,203.14
2023-06-25T00:40:48.030Z,204.26
2023-06-25T00:41:48.046Z,204.92
2023-06-25T00:42:48.002Z,203.04
2023-06-25T00:43:47.997Z,204.62
2023-06-25T00:44:47.993Z,204.06
2023-06-25T00:45:47.973Z,203.07
2023-06-25T00:46:47.978Z,201.37
2023-06-25T00:47:48.013Z,207.66
2023-06-25T00:48:48.055Z,207.20
2023-06-25T00:49:47.960Z,203.48
2023-06-25T00:50:47.962Z,206.58
2023-06-25T00:51:47.940Z,206.41
2023-06-25T00:52:47.982Z,203.99
2023-06-25T00:53:47.938Z,201.93
2023-06-25T00:54:47.894Z,202.47
2023-06-25T00:55:47.929Z,203.96
2023-06-25T00:56:47.879Z,205.90
2023-06-25T00:57:47.900Z,204.13
2023-06-25T00:58:47.915Z,204.35
2023-06-25T00:59:47.929Z,205.53
2023-06-25T01:00:47.901Z,203.85
2023-06-25T01:01:47.831Z,202.25
2023-06-25T01:02:48.049Z,204.67
2023-06-25T01:03:47.900Z,201.63
2023-06-25T01:04:47.822Z,206.03
2023-06-25T01:05:47.847Z,205.97
2023-06-25T01:06:47.915Z,203.01
2023-06-25T01:07:47.811Z,203.77
2023-06-25T01:08:47.920Z,205.41
2023-06-25T01:09:47.780Z,203.94
2023-06-25T01:10:47.805Z,205.79
2023-06-25T01:11:47.785Z,202.91
2023-06-25T01:12:47.796Z,203.69
2023-06-25T01:13:47.785Z,203.35
2023-06-25T01:14:47.757Z,202.04
2023-06-25T01:15:47.756Z,203.72
2023-06-25T01:16:47.779Z,199.57
2023-06-25T01:17:47.790Z,205.33
2023-06-25T01:18:58.950Z,204.51
2023-06-25T01:19:48.773Z,204.61
2023-06-25T01:20:47.745Z,204.76
2023-06-25T01:21:47.766Z,205.37
2023-06-25T01:22:47.772Z,203.80
2023-06-25T01:23:47.736Z,201.05
2023-06-25T01:24:47.722Z,203.29
2023-06-25T01:25:47.723Z,203.93
2023-06-25T01:26:47.692Z,205.16
2023-06-25T01:27:47.691Z,204.05
2023-06-25T01:28:47.707Z,199.20
2023-06-25T01:29:47.709Z,199.77
2023-06-25T01:30:47.678Z,202.65
2023-06-25T01:31:47.711Z,204.16
2023-06-25T01:32:47.735Z,199.75
2023-06-25T01:33:47.673Z,203.78
2023-06-25T01:34:47.673Z,203.05
2023-06-25T01:35:47.656Z,202.71
2023-06-25T01:36:47.658Z,202.69
2023-06-25T01:37:47.613Z,204.62
2023-06-25T01:38:47.626Z,201.74
2023-06-25T01:39:47.635Z,205.13
2023-06-25T01:40:47.628Z,199.66
2023-06-25T01:41:47.603Z,202.24
2023-06-25T01:42:47.602Z,199.83
2023-06-25T01:43:47.600Z,202.05
2023-06-25T01:44:47.640Z,204.41
2023-06-25T01:45:47.609Z,202.55
2023-06-25T01:46:47.557Z,205.38
2023-06-25T01:47:47.636Z,203.61
2023-06-25T01:48:47.547Z,202.28
2023-06-25T01:49:47.536Z,202.39
2023-06-25T01:50:47.547Z,202.51
2023-06-25T01:51:47.513Z,202.05
2023-06-25T01:52:47.542Z,204.48
2023-06-25T01:53:47.507Z,202.80
2023-06-25T01:54:47.534Z,202.42
2023-06-25T01:55:47.514Z,200.05
2023-06-25T01:56:47.532Z,201.14
2023-06-25T01:57:47.539Z,205.52
2023-06-25T01:58:47.503Z,202.32
2023-06-25T01:59:47.474Z,201.98
2023-06-25T02:00:47.459Z,200.14
2023-06-25T02:01:47.553Z,199.17
2023-06-25T02:02:47.597Z,200.63
2023-06-25T02:03:47.533Z,198.70
2023-06-25T02:04:47.443Z,202.30
2023-06-25T02:05:47.429Z,203.05
2023-06-25T02:06:47.445Z,202.55
2023-06-25T02:07:47.437Z,202.27
2023-06-25T02:08:47.399Z,202.97
2023-06-25T02:09:47.409Z,198.20
2023-06-25T02:10:47.420Z,201.76
2023-06-25T02:11:47.397Z,200.29
2023-06-25T02:12:47.389Z,201.37
2023-06-25T02:13:47.399Z,203.18
2023-06-25T02:14:47.375Z,202.22
2023-06-25T02:15:47.400Z,201.14
2023-06-25T02:16:47.357Z,200.79
2023-06-25T02:17:47.405Z,199.83
2023-06-25T02:18:47.324Z,202.31
2023-06-25T02:19:47.347Z,200.37
2023-06-25T02:20:47.344Z,200.53
2023-06-25T02:21:47.351Z,201.07
2023-06-25T02:22:47.325Z,201.51
2023-06-25T02:23:47.300Z,203.07
2023-06-25T02:24:47.338Z,197.81
2023-06-25T02:25:47.319Z,200.39
2023-06-25T02:26:47.280Z,200.20
2023-06-25T02:27:47.299Z,199.27
2023-06-25T02:28:47.265Z,200.74
2023-06-25T02:29:47.301Z,200.44
2023-06-25T02:30:47.316Z,200.43
2023-06-25T02:31:47.342Z,198.49
2023-06-25T02:32:47.304Z,199.81
2023-06-25T02:33:47.277Z,199.08
2023-06-25T02:34:47.286Z,201.20
2023-06-25T02:35:47.346Z,200.31
2023-06-25T02:36:47.297Z,200.08
2023-06-25T02:37:47.302Z,196.15
2023-06-25T02:38:47.308Z,198.57
2023-06-25T02:39:47.313Z,201.36
2023-06-25T02:40:47.317Z,199.42
2023-06-25T02:41:47.318Z,200.56
2023-06-25T02:42:47.340Z,199.12
2023-06-25T02:43:47.322Z,201.64
2023-06-25T02:44:47.305Z,199.17
2023-06-25T02:45:47.353Z,201.30
2023-06-25T02:46:47.379Z,201.83
2023-06-25T02:47:47.370Z,197.98
2023-06-25T02:48:47.343Z,198.03
2023-06-25T02:49:47.333Z,201.09
2023-06-25T02:50:47.366Z,198.48
2023-06-25T02:51:47.353Z,201.24
2023-06-25T02:52:47.361Z,198.55
2023-06-25T02:53:47.380Z,198.40
2023-06-25T02:54:47.371Z,196.32
2023-06-25T02:55:47.386Z,200.10
2023-06-25T02:56:47.374Z,201.34
2023-06-25T02:57:47.412Z,198.10
2023-06-25T02:58:47.407Z,201.95
2023-06-25T02:59:47.395Z,199.80
2023-06-25T03:00:47.469Z,196.47
2023-06-25T03:01:47.403Z,198.96
2023-06-25T03:02:47.525Z,198.17
2023-06-25T03:03:47.437Z,201.60
2023-06-25T03:04:47.414Z,198.54
2023-06-25T03:05:47.505Z,199.37
2023-06-25T03:06:47.504Z,199.64
2023-06-25T03:07:47.443Z,200.69
2023-06-25T03:08:47.458Z,198.55
2023-06-25T03:09:47.439Z,198.55
2023-06-25T03:10:47.439Z,199.19
2023-06-25T03:11:47.454Z,198.04
2023-06-25T03:12:47.462Z,197.53
2023-06-25T03:13:47.511Z,198.32
2023-06-25T03:14:47.490Z,196.90
2023-06-25T03:15:47.490Z,196.82
2023-06-25T03:16:47.464Z,198.14
2023-06-25T03:17:47.544Z,194.99
2023-06-25T03:18:47.484Z,198.34
2023-06-25T03:19:47.489Z,198.77
2023-06-25T03:20:47.486Z,196.73
2023-06-25T03:21:47.577Z,198.08
2023-06-25T03:22:47.520Z,196.00
2023-06-25T03:23:47.525Z,198.27
2023-06-25T03:24:47.516Z,195.92
2023-06-25T03:25:47.520Z,197.39
2023-06-25T03:26:47.541Z,198.79
2023-06-25T03:27:47.543Z,201.22
2023-06-25T03:28:47.539Z,198.44
2023-06-25T03:29:47.545Z,198.24
2023-06-25T03:30:47.648Z,198.24
2023-06-25T03:31:47.556Z,200.48
2023-06-25T03:32:47.583Z,197.59
2023-06-25T03:33:47.575Z,197.45
2023-06-25T03:34:47.596Z,196.16
2023-06-25T03:35:47.691Z,197.28
2023-06-25T03:36:47.583Z,198.53
2023-06-25T03:37:47.601Z,196.81
2023-06-25T03:38:47.636Z,197.44
2023-06-25T03:39:47.632Z,195.72
2023-06-25T03:40:47.705Z,197.78
2023-06-25T03:41:47.665Z,195.37
2023-06-25T03:42:47.665Z,196.13
2023-06-25T03:43:47.670Z,197.99
2023-06-25T03:44:47.665Z,195.77
2023-06-25T03:45:47.700Z,199.73
2023-06-25T03:46:47.700Z,198.00
2023-06-25T03:47:47.860Z,199.28
2023-06-25T03:48:47.788Z,197.47
2023-06-25T03:49:47.711Z,197.16
2023-06-25T03:50:47.728Z,198.64
2023-06-25T03:51:47.728Z,197.25
2023-06-25T03:52:47.790Z,196.62
2023-06-25T03:53:47.757Z,198.03
2023-06-25T03:54:47.753Z,198.20
2023-06-25T03:55:47.737Z,199.37
2023-06-25T03:56:47.869Z,195.54
2023-06-25T03:57:47.873Z,197.97
2023-06-25T03:58:47.771Z,200.38
2023-06-25T03:59:47.867Z,198.71
2023-06-25T04:00:47.790Z,197.18
2023-06-25T04:01:47.923Z,199.38
2023-06-25T04:02:47.835Z,198.21
2023-06-25T04:03:47.858Z,198.30
2023-06-25T04:04:47.838Z,197.62
2023-06-25T04:05:47.892Z,198.95
2023-06-25T04:06:47.915Z,198.86
2023-06-25T04:07:47.844Z,199.31
2023-06-25T04:08:47.902Z,198.59
2023-06-25T04:09:47.892Z,194.70
2023-06-25T04:10:47.913Z,198.28
2023-06-25T04:11:48.047Z,197.08
2023-06-25T04:12:47.930Z,192.65
2023-06-25T04:13:47.911Z,199.80
2023-06-25T04:14:47.899Z,197.86
2023-06-25T04:15:47.951Z,194.84
2023-06-25T04:16:47.911Z,198.39
2023-06-25T04:17:48.145Z,196.97
2023-06-25T04:18:48.001Z,197.57
2023-06-25T04:19:47.933Z,197.69
2023-06-25T04:20:47.966Z,195.94
2023-06-25T04:21:48.017Z,196.43
2023-06-25T04:22:48.010Z,195.86
2023-06-25T04:23:48.025Z,196.18
2023-06-25T04:24:48.024Z,194.23
2023-06-25T04:25:48.079Z,196.28
2023-06-25T04:26:47.981Z,194.79
2023-06-25T04:27:48.093Z,196.90
2023-06-25T04:28:47.995Z,197.30
2023-06-25T04:29:48.067Z,196.04
2023-06-25T04:30:48.075Z,196.33
2023-06-25T04:31:48.134Z,196.05
2023-06-25T04:32:48.212Z,198.79
2023-06-25T04:33:48.188Z,195.95
2023-06-25T04:34:48.037Z,195.61
2023-06-25T04:35:48.099Z,197.10
2023-06-25T04:36:48.055Z,196.65
2023-06-25T04:37:48.131Z,192.51
2023-06-25T04:38:48.128Z,196.17
2023-06-25T04:39:48.126Z,194.91
2023-06-25T04:40:48.149Z,194.33
2023-06-25T04:41:48.148Z,194.43
2023-06-25T04:42:48.160Z,196.25
2023-06-25T04:43:48.191Z,191.47
2023-06-25T04:44:48.147Z,190.12
2023-06-25T04:45:48.201Z,191.19
2023-06-25T04:46:48.205Z,188.23
2023-06-25T04:47:48.255Z,189.71
2023-06-25T04:48:48.203Z,191.10
2023-06-25T04:49:48.219Z,190.95
2023-06-25T04:50:48.213Z,189.71
2023-06-25T04:51:48.214Z,191.74
2023-06-25T04:52:48.266Z,190.46
2023-06-25T04:53:48.278Z,188.02
2023-06-25T04:54:48.284Z,189.73
2023-06-25T04:55:48.271Z,188.65
2023-06-25T04:56:48.288Z,189.47
2023-06-25T04:57:48.378Z,187.49
2023-06-25T04:58:48.330Z,187.06
2023-06-25T04:59:48.339Z,186.30
2023-06-25T05:00:48.381Z,186.37
2023-06-25T05:01:48.373Z,187.82
2023-06-25T05:02:48.442Z,186.06
2023-06-25T05:03:48.461Z,186.94
2023-06-25T05:04:48.436Z,185.44
2023-06-25T05:05:48.443Z,190.69
2023-06-25T05:06:48.526Z,186.40
2023-06-25T05:07:48.468Z,189.13
2023-06-25T05:08:48.475Z,187.05
2023-06-25T05:09:48.501Z,188.69
2023-06-25T05:10:48.507Z,187.67
2023-06-25T05:11:48.552Z,188.54
2023-06-25T05:12:48.534Z,188.74
2023-06-25T05:13:48.533Z,188.22
2023-06-25T05:14:48.570Z,187.71
2023-06-25T05:15:48.553Z,188.93
2023-06-25T05:16:48.584Z,185.35
2023-06-25T05:17:48.616Z,187.23
2023-06-25T05:18:49.145Z,186.10
2023-06-25T05:19:48.625Z,187.09
2023-06-25T05:20:48.642Z,186.09
2023-06-25T05:21:48.669Z,186.48
2023-06-25T05:22:48.652Z,187.62
2023-06-25T05:23:48.672Z,187.04
2023-06-25T05:24:48.691Z,187.02
2023-06-25T05:25:48.673Z,187.80
2023-06-25T05:26:48.701Z,188.30
2023-06-25T05:27:48.734Z,186.75
2023-06-25T05:28:48.769Z,186.49
2023-06-25T05:29:48.780Z,185.38
2023-06-25T05:30:48.761Z,186.58
2023-06-25T05:31:48.792Z,187.39
2023-06-25T05:32:48.887Z,184.48
2023-06-25T05:33:48.807Z,186.28
2023-06-25T05:34:48.834Z,187.70
2023-06-25T05:35:48.823Z,184.15
2023-06-25T05:36:48.876Z,185.84
2023-06-25T05:37:48.873Z,183.64
2023-06-25T05:38:51.370Z,184.74
2023-06-25T05:39:48.920Z,188.51
2023-06-25T05:40:48.860Z,186.08
2023-06-25T05:41:48.832Z,188.52
2023-06-25T05:42:48.869Z,187.25
2023-06-25T05:43:48.812Z,187.76
2023-06-25T05:44:48.852Z,188.99
2023-06-25T05:45:48.825Z,186.02
2023-06-25T05:46:48.926Z,188.43
2023-06-25T05:47:48.957Z,188.17
2023-06-25T05:48:48.773Z,187.43
2023-06-25T05:49:48.817Z,187.99
2023-06-25T05:50:48.770Z,189.08
2023-06-25T05:51:48.779Z,185.70
2023-06-25T05:52:48.774Z,186.41
2023-06-25T05:53:48.758Z,188.36
2023-06-25T05:54:48.758Z,185.72
2023-06-25T05:55:48.775Z,188.72
2023-06-25T05:56:48.777Z,186.37
2023-06-25T05:57:48.740Z,188.55
2023-06-25T05:58:48.729Z,187.40
2023-06-25T05:59:48.711Z,187.33
2023-06-25T06:00:48.702Z,187.91
2023-06-25T06:01:48.730Z,184.81
2023-06-25T06:02:48.753Z,187.30
2023-06-25T06:03:48.747Z,186.07
2023-06-25T06:04:48.652Z,187.30
2023-06-25T06:05:48.685Z,188.58
2023-06-25T06:06:48.726Z,187.71
2023-06-25T06:07:48.673Z,187.46
2023-06-25T06:08:48.641Z,188.43
2023-06-25T06:09:48.651Z,186.19
2023-06-25T06:10:48.702Z,186.61
2023-06-25T06:11:48.668Z,188.54
2023-06-25T06:12:48.756Z,185.10
2023-06-25T06:13:48.625Z,185.88
2023-06-25T06:14:48.614Z,185.66
2023-06-25T06:15:48.598Z,188.04
2023-06-25T06:16:48.620Z,187.04
2023-06-25T06:17:48.656Z,186.02
2023-06-25T06:18:48.598Z,187.14
2023-06-25T06:19:48.569Z,186.77
2023-06-25T06:20:48.603Z,188.66
2023-06-25T06:21:48.563Z,187.14
2023-06-25T06:22:48.578Z,188.53
2023-06-25T06:23:48.676Z,188.42
2023-06-25T06:24:48.589Z,187.32
2023-06-25T06:25:48.559Z,189.72
2023-06-25T06:26:48.529Z,188.09
2023-06-25T06:27:48.537Z,186.64
2023-06-25T06:28:48.571Z,187.94
2023-06-25T06:29:48.516Z,185.72
2023-06-25T06:30:48.552Z,189.06
2023-06-25T06:31:48.504Z,189.80
2023-06-25T06:32:48.586Z,188.32
2023-06-25T06:33:48.524Z,187.89
2023-06-25T06:34:48.507Z,186.69
2023-06-25T06:35:48.460Z,188.01
2023-06-25T06:36:48.505Z,185.29
2023-06-25T06:37:48.489Z,185.92
2023-06-25T06:38:48.474Z,187.31
2023-06-25T06:39:48.472Z,187.25
2023-06-25T06:40:48.473Z,189.91
2023-06-25T06:41:48.457Z,190.04
2023-06-25T06:42:48.454Z,187.37
2023-06-25T06:43:48.460Z,185.39
2023-06-25T06:44:48.433Z,186.67
2023-06-25T06:45:48.403Z,189.76
2023-06-25T06:46:48.426Z,188.15
2023-06-25T06:47:48.505Z,187.30
2023-06-25T06:48:48.384Z,186.69
2023-06-25T06:49:48.396Z,188.08
2023-06-25T06:50:48.369Z,188.61
2023-06-25T06:51:48.417Z,187.65
2023-06-25T06:52:48.432Z,189.84
2023-06-25T06:53:48.376Z,189.21
2023-06-25T06:54:48.327Z,188.12
2023-06-25T06:55:48.346Z,186.93
2023-06-25T06:56:48.316Z,187.26
2023-06-25T06:57:48.366Z,187.78
2023-06-25T06:58:48.318Z,188.11
2023-06-25T06:59:48.333Z,188.82
2023-06-25T07:00:48.303Z,188.90
2023-06-25T07:01:48.425Z,185.42
2023-06-25T07:02:48.371Z,185.22
2023-06-25T07:03:48.305Z,186.05
2023-06-25T07:04:48.295Z,189.05
2023-06-25T07:05:48.299Z,185.38
2023-06-25T07:06:48.303Z,187.61
2023-06-25T07:07:48.268Z,188.22
2023-06-25T07:08:48.260Z,186.73
2023-06-25T07:09:48.220Z,187.94
2023-06-25T07:10:48.261Z,186.64
2023-06-25T07:11:48.238Z,187.76
2023-06-25T07:12:48.247Z,185.75
2023-06-25T07:13:48.264Z,187.62
2023-06-25T07:14:48.262Z,190.04
2023-06-25T07:15:48.298Z,187.55
2023-06-25T07:16:48.325Z,186.81
2023-06-25T07:17:48.368Z,186.99
2023-06-25T07:18:48.343Z,187.21
2023-06-25T07:19:48.355Z,185.97
2023-06-25T07:20:48.367Z,186.95
2023-06-25T07:21:48.418Z,188.74
2023-06-25T07:22:48.422Z,185.41
2023-06-25T07:23:48.420Z,188.80
2023-06-25T07:24:48.473Z,186.49
2023-06-25T07:25:48.461Z,186.51
2023-06-25T07:26:48.488Z,186.11
2023-06-25T07:27:48.555Z,188.51
2023-06-25T07:28:48.524Z,187.66
2023-06-25T07:29:48.572Z,187.70
2023-06-25T07:30:48.576Z,188.13
2023-06-25T07:31:48.576Z,186.26
2023-06-25T07:32:48.610Z,187.19
2023-06-25T07:33:48.592Z,190.12
2023-06-25T07:34:48.613Z,188.81
2023-06-25T07:35:48.645Z,186.88
2023-06-25T07:36:48.664Z,188.37
2023-06-25T07:37:48.691Z,186.35
2023-06-25T07:38:48.661Z,187.04
2023-06-25T07:39:48.753Z,185.27
2023-06-25T07:40:48.749Z,188.29
2023-06-25T07:41:48.746Z,186.65
2023-06-25T07:42:48.797Z,188.68
2023-06-25T07:43:48.822Z,187.55
2023-06-25T07:44:56.375Z,189.66
2023-06-25T07:45:49.812Z,189.81
2023-06-25T07:46:48.778Z,189.79
2023-06-25T07:47:48.842Z,189.57
2023-06-25T07:48:48.778Z,189.87
2023-06-25T07:49:48.780Z,186.80
2023-06-25T07:50:48.743Z,188.69
2023-06-25T07:51:48.788Z,187.81
2023-06-25T07:52:48.734Z,189.80
2023-06-25T07:53:48.718Z,190.66
2023-06-25T07:54:48.737Z,187.33
2023-06-25T07:56:00.361Z,187.03
2023-06-25T07:56:49.709Z,187.29
2023-06-25T07:57:48.702Z,187.71
2023-06-25T07:58:48.692Z,188.09
2023-06-25T07:59:53.729Z,188.78
2023-06-25T08:00:49.704Z,187.29
2023-06-25T08:01:48.671Z,187.66
2023-06-25T08:02:48.874Z,188.35
2023-06-25T08:03:48.943Z,189.36
2023-06-25T08:04:48.848Z,189.16
2023-06-25T08:05:48.649Z,189.05
2023-06-25T08:06:48.659Z,186.27
2023-06-25T08:07:48.642Z,188.23
2023-06-25T08:08:48.629Z,189.54
2023-06-25T08:09:48.605Z,187.28
2023-06-25T08:10:48.642Z,187.00
2023-06-25T08:11:48.582Z,188.06
2023-06-25T08:12:48.582Z,189.15
2023-06-25T08:13:48.605Z,188.36
2023-06-25T08:14:48.602Z,187.01
2023-06-25T08:15:48.571Z,187.75
2023-06-25T08:16:48.580Z,186.63
2023-06-25T08:17:48.595Z,188.05
2023-06-25T08:18:48.561Z,186.69
2023-06-25T08:19:48.554Z,190.81
2023-06-25T08:20:48.528Z,188.09
2023-06-25T08:21:48.564Z,186.78
2023-06-25T08:22:48.517Z,186.82
2023-06-25T08:23:48.530Z,186.21
2023-06-25T08:24:48.536Z,188.62
2023-06-25T08:25:48.511Z,188.51
2023-06-25T08:26:48.478Z,188.82
2023-06-25T08:27:48.499Z,188.32
2023-06-25T08:28:48.518Z,187.85
2023-06-25T08:29:48.494Z,188.30
2023-06-25T08:30:48.554Z,187.10
2023-06-25T08:31:48.536Z,187.60
2023-06-25T08:32:48.574Z,189.10
2023-06-25T08:33:48.520Z,187.57
2023-06-25T08:34:48.540Z,184.15
2023-06-25T08:35:48.551Z,186.68
2023-06-25T08:36:48.552Z,186.91
2023-06-25T08:37:48.553Z,188.88
2023-06-25T08:38:48.558Z,190.06
2023-06-25T08:39:48.577Z,184.16
2023-06-25T08:40:48.589Z,187.64
2023-06-25T08:41:48.590Z,186.79
2023-06-25T08:42:50.674Z,187.21
2023-06-25T08:43:48.720Z,188.50
2023-06-25T08:44:48.614Z,188.62
2023-06-25T08:45:48.637Z,188.87
2023-06-25T08:46:48.669Z,187.38
2023-06-25T08:47:48.635Z,187.08
2023-06-25T08:48:48.588Z,188.07
2023-06-25T08:49:48.565Z,186.52
2023-06-25T08:50:48.551Z,187.11
2023-06-25T08:51:48.556Z,185.51
2023-06-25T08:52:48.566Z,184.14
2023-06-25T08:53:48.544Z,186.29
2023-06-25T08:54:48.507Z,187.01
2023-06-25T08:55:48.533Z,185.70
2023-06-25T08:56:48.517Z,187.47
2023-06-25T08:57:48.510Z,187.53
2023-06-25T08:58:48.486Z,186.34
2023-06-25T08:59:48.490Z,186.04
2023-06-25T09:00:48.534Z,185.89
2023-06-25T09:01:48.522Z,184.11
2023-06-25T09:02:48.584Z,186.06
2023-06-25T09:03:48.510Z,184.60
2023-06-25T09:04:48.459Z,189.16
2023-06-25T09:05:48.442Z,187.92
2023-06-25T09:07:03.184Z,185.14
2023-06-25T09:07:49.494Z,185.48
2023-06-25T09:08:48.421Z,186.15
2023-06-25T09:09:48.426Z,186.81
2023-06-25T09:10:48.438Z,188.68
2023-06-25T09:11:48.397Z,187.64
2023-06-25T09:12:48.411Z,189.11
2023-06-25T09:13:48.398Z,188.35
2023-06-25T09:14:48.405Z,184.20
2023-06-25T09:15:48.421Z,186.92
2023-06-25T09:16:48.397Z,187.05
2023-06-25T09:17:48.476Z,187.11
2023-06-25T09:18:48.350Z,189.31
2023-06-25T09:19:48.409Z,187.00
2023-06-25T09:20:50.300Z,187.54
2023-06-25T09:21:48.379Z,187.65
2023-06-25T09:22:48.367Z,187.96
2023-06-25T09:23:48.334Z,187.34
2023-06-25T09:24:48.318Z,189.19
2023-06-25T09:25:48.341Z,188.84
2023-06-25T09:26:48.286Z,185.97
2023-06-25T09:27:48.298Z,188.87
2023-06-25T09:28:48.297Z,188.74
2023-06-25T09:29:48.370Z,184.72
2023-06-25T09:30:48.313Z,190.95
2023-06-25T09:31:48.276Z,188.15
2023-06-25T09:32:48.456Z,187.84
2023-06-25T09:33:48.291Z,189.17
2023-06-25T09:34:48.256Z,186.64
2023-06-25T09:35:48.218Z,188.20
2023-06-25T09:36:48.258Z,188.65
2023-06-25T09:37:48.278Z,186.24
2023-06-25T09:38:48.273Z,188.72
2023-06-25T09:39:48.231Z,187.83
2023-06-25T09:40:48.227Z,191.45
2023-06-25T09:41:48.266Z,186.08
2023-06-25T09:42:48.199Z,187.84
2023-06-25T09:43:48.211Z,187.80
2023-06-25T09:44:49.989Z,191.57
2023-06-25T09:45:48.226Z,189.03
2023-06-25T09:46:48.262Z,190.31
2023-06-25T09:47:48.209Z,187.79
2023-06-25T09:48:48.202Z,187.57
2023-06-25T09:49:48.227Z,188.82
2023-06-25T09:50:49.878Z,187.93
2023-06-25T09:51:48.152Z,188.83
2023-06-25T09:52:48.154Z,190.46
2023-06-25T09:53:48.166Z,189.02
2023-06-25T09:54:48.171Z,189.73
2023-06-25T09:55:48.175Z,189.38
2023-06-25T09:56:48.132Z,191.68
2023-06-25T09:57:48.188Z,189.28
2023-06-25T09:58:48.207Z,191.53
2023-06-25T09:59:48.169Z,192.65
2023-06-25T10:00:48.182Z,192.16
2023-06-25T10:01:48.174Z,191.45
2023-06-25T10:02:48.425Z,187.49
2023-06-25T10:03:48.191Z,191.34
2023-06-25T10:04:48.250Z,192.04
2023-06-25T10:05:48.203Z,186.38
2023-06-25T10:06:48.212Z,191.14
2023-06-25T10:07:48.140Z,191.58
2023-06-25T10:08:48.171Z,193.91
2023-06-25T10:09:48.195Z,191.82
2023-06-25T10:10:48.171Z,189.62
2023-06-25T10:11:48.138Z,190.07
2023-06-25T10:12:48.137Z,190.54
2023-06-25T10:13:48.197Z,189.71
2023-06-25T10:14:48.166Z,188.41
2023-06-25T10:15:48.188Z,189.73
2023-06-25T10:16:48.160Z,191.49
2023-06-25T10:17:48.220Z,190.23
2023-06-25T10:18:48.217Z,191.12
2023-06-25T10:19:48.128Z,189.76
2023-06-25T10:20:48.172Z,192.01
2023-06-25T10:21:48.167Z,190.05
2023-06-25T10:22:48.177Z,191.20
2023-06-25T10:23:48.120Z,188.04
2023-06-25T10:24:48.140Z,193.09
2023-06-25T10:25:48.247Z,192.34
2023-06-25T10:26:48.143Z,193.01
2023-06-25T10:27:48.208Z,191.59
2023-06-25T10:28:48.163Z,191.59
2023-06-25T10:29:48.144Z,188.68
2023-06-25T10:30:48.238Z,190.37
2023-06-25T10:31:48.202Z,192.11
2023-06-25T10:32:48.145Z,189.18
2023-06-25T10:33:48.097Z,191.91
2023-06-25T10:34:48.150Z,187.58
2023-06-25T10:35:48.129Z,193.24
2023-06-25T10:36:48.109Z,190.17
2023-06-25T10:37:48.114Z,188.25
2023-06-25T10:38:48.121Z,192.43
2023-06-25T10:39:48.096Z,189.31
2023-06-25T10:40:48.106Z,187.85
2023-06-25T10:41:48.108Z,189.34
2023-06-25T10:42:48.084Z,190.83
2023-06-25T10:43:48.102Z,189.28
2023-06-25T10:44:48.187Z,189.43
2023-06-25T10:45:48.120Z,191.44
2023-06-25T10:46:48.110Z,190.11
2023-06-25T10:47:48.096Z,191.03
2023-06-25T10:48:48.101Z,190.31
2023-06-25T10:49:48.100Z,188.85
2023-06-25T10:50:48.093Z,191.18
2023-06-25T10:51:48.102Z,192.69
2023-06-25T10:52:48.087Z,192.48
2023-06-25T10:53:48.079Z,189.45
2023-06-25T10:54:48.094Z,190.67
2023-06-25T10:55:48.107Z,192.40
2023-06-25T10:56:49.497Z,192.32
2023-06-25T10:57:48.069Z,191.84
2023-06-25T10:58:48.082Z,192.26
2023-06-25T10:59:48.082Z,189.97
2023-06-25T11:00:48.085Z,193.60
2023-06-25T11:01:48.090Z,192.46
2023-06-25T11:02:48.141Z,191.57
2023-06-25T11:03:48.171Z,194.02
2023-06-25T11:04:48.101Z,192.32
2023-06-25T11:05:48.100Z,191.09
2023-06-25T11:06:48.101Z,190.69
2023-06-25T11:07:48.073Z,187.43
2023-06-25T11:08:48.061Z,191.92
2023-06-25T11:09:48.050Z,191.40
2023-06-25T11:10:48.124Z,188.39
2023-06-25T11:11:48.085Z,191.33
2023-06-25T11:12:48.075Z,187.85
2023-06-25T11:13:48.109Z,189.90
2023-06-25T11:14:48.072Z,193.80
2023-06-25T11:15:48.086Z,195.23
2023-06-25T11:16:48.110Z,188.55
2023-06-25T11:17:48.164Z,191.15
2023-06-25T11:18:48.128Z,190.35
2023-06-25T11:19:48.109Z,189.58
2023-06-25T11:21:30.581Z,25.00
2023-06-25T11:22:30.555Z,25.00
2023-06-25T11:23:30.547Z,25.00
2023-06-25T11:24:30.568Z,25.00
2023-06-25T11:25:30.589Z,25.00
2023-06-25T11:26:30.533Z,27.85
2023-06-25T11:27:30.653Z,29.57
2023-06-25T11:28:30.615Z,25.23
2023-06-25T11:29:30.505Z,27.89
2023-06-25T11:30:30.723Z,29.05
2023-06-25T11:31:30.538Z,27.72
2023-06-25T11:32:32.772Z,32.05
2023-06-25T11:33:30.795Z,29.06
2023-06-25T11:34:30.784Z,32.34
2023-06-25T11:35:30.860Z,30.45
2023-06-25T11:36:30.915Z,32.14
2023-06-25T11:37:30.960Z,26.78
2023-06-25T11:38:31.111Z,27.82
2023-06-25T11:39:31.029Z,29.59
2023-06-25T11:40:31.105Z,27.72
2023-06-25T11:41:31.135Z,27.03
2023-06-25T11:42:31.186Z,31.27
2023-06-25T11:43:31.251Z,26.30
2023-06-25T11:44:31.315Z,25.00
2023-06-25T11:45:31.374Z,28.47
2023-06-25T11:46:31.390Z,26.51
2023-06-25T11:47:31.515Z,29.87
2023-06-25T11:48:31.478Z,27.06
2023-06-25T11:49:31.549Z,30.17
2023-06-25T11:50:31.601Z,25.74
2023-06-25T11:51:31.636Z,27.94
2023-06-25T11:52:31.780Z,27.83
2023-06-25T11:53:31.782Z,29.73
2023-06-25T11:54:31.790Z,28.67
2023-06-25T11:55:31.860Z,31.79
2023-06-25T11:56:31.870Z,29.47
2023-06-25T11:57:31.906Z,29.24
2023-06-25T11:58:32.005Z,26.96
2023-06-25T11:59:32.062Z,28.54
2023-06-25T12:00:32.117Z,27.25
2023-06-25T12:01:32.160Z,29.61
2023-06-25T12:02:48.231Z,30.26
2023-06-25T12:03:33.292Z,30.35
2023-06-25T12:04:32.224Z,30.75
2023-06-25T12:05:32.242Z,31.04
2023-06-25T12:06:32.220Z,31.25
2023-06-25T12:07:32.200Z,27.95
2023-06-25T12:08:32.174Z,32.17
2023-06-25T12:09:32.175Z,33.87
2023-06-25T12:10:32.195Z,29.75
2023-06-25T12:11:32.173Z,29.58
2023-06-25T12:12:32.261Z,29.25
2023-06-25T12:13:32.282Z,31.83
2023-06-25T12:14:32.375Z,29.26
2023-06-25T12:15:32.482Z,29.37
2023-06-25T12:16:32.513Z,26.83
2023-06-25T12:17:32.623Z,28.98
2023-06-25T12:18:32.604Z,30.95
2023-06-25T12:19:32.656Z,28.90
2023-06-25T12:20:32.725Z,28.91
2023-06-25T12:21:32.839Z,29.39
2023-06-25T12:22:33.570Z,28.65
2023-06-25T12:23:32.913Z,26.48
2023-06-25T12:24:32.972Z,27.59
2023-06-25T12:25:33.125Z,29.57
2023-06-25T12:26:33.130Z,28.51
2023-06-25T12:27:33.196Z,30.42
2023-06-25T12:28:33.224Z,29.29
2023-06-25T12:29:33.259Z,29.08
2023-06-25T12:30:33.348Z,29.43
2023-06-25T12:31:33.609Z,29.07